Time;durP1;ratioP1;P1;durP2;ratioP2;P2;SDS_P1;SDS_P2;PMS_P1;PMS_P2;Temp;Humidity;BMP_temperature;BMP_pressure;BME280_temperature;BME280_humidity;BME280_pressure;Samples;Min_cycle;Max_cycle;Signal;HPM_P1;HPM_P2
2022/04/05 00:00:42;;;;;;;5.90;4.90;;;8.30;95.40;;;;;;5033798;28;20217;-62
2022/04/05 00:03:09;;;;;;;5.80;4.80;;;8.30;95.80;;;;;;5034231;28;20280;-61
2022/04/05 00:05:35;;;;;;;6.50;4.87;;;8.30;95.40;;;;;;5034202;28;20211;-61
2022/04/05 00:08:02;;;;;;;6.67;4.93;;;8.40;95.10;;;;;;5034010;28;20206;-60
2022/04/05 00:10:29;;;;;;;4.97;4.47;;;8.40;94.80;;;;;;5034089;28;20207;-61
2022/04/05 00:12:58;;;;;;;7.33;4.80;;;8.40;94.70;;;;;;5034000;28;20276;-61
2022/04/05 00:15:26;;;;;;;7.17;4.97;;;8.40;94.70;;;;;;5033658;28;20313;-60
2022/04/05 00:17:52;;;;;;;5.93;4.47;;;8.40;94.70;;;;;;5033968;28;20213;-60
2022/04/05 00:20:19;;;;;;;6.13;4.93;;;8.30;94.50;;;;;;5034996;28;20211;-61
2022/04/05 00:22:46;;;;;;;6.07;4.83;;;8.30;94.60;;;;;;5034477;28;20280;-61
2022/04/05 00:25:12;;;;;;;13.10;8.47;;;8.30;94.70;;;;;;5033985;28;20206;-61
2022/04/05 00:27:39;;;;;;;7.00;4.70;;;8.30;94.70;;;;;;5033306;28;20666;-61
2022/04/05 00:30:07;;;;;;;6.83;4.80;;;8.30;94.50;;;;;;5033235;28;20685;-61
2022/04/05 00:32:35;;;;;;;6.77;5.13;;;8.30;94.40;;;;;;5033685;28;20662;-61
2022/04/05 00:35:01;;;;;;;5.73;4.63;;;8.30;94.40;;;;;;5033568;28;20207;-61
2022/04/05 00:37:28;;;;;;;7.23;4.77;;;8.40;94.40;;;;;;5033484;28;20202;-61
2022/04/05 00:39:55;;;;;;;5.20;4.57;;;8.50;94.30;;;;;;5033185;28;20206;-61
2022/04/05 00:42:21;;;;;;;5.53;4.77;;;8.50;94.20;;;;;;5033202;28;20213;-61
2022/04/05 00:44:48;;;;;;;5.87;4.60;;;8.50;94.20;;;;;;5032991;28;20210;-61
2022/04/05 00:47:17;;;;;;;5.43;4.50;;;8.60;94.10;;;;;;5033307;28;20257;-62
2022/04/05 00:49:47;;;;;;;6.67;4.53;;;8.60;94.10;;;;;;5032740;28;20213;-62
2022/04/05 00:52:15;;;;;;;5.53;4.60;;;8.50;94.10;;;;;;5033164;28;20202;-61
2022/04/05 00:54:44;;;;;;;6.10;4.60;;;8.50;94.30;;;;;;5032757;28;20497;-61
2022/04/05 00:57:13;;;;;;;5.37;4.73;;;8.50;94.20;;;;;;5032991;28;20303;-61
2022/04/05 00:59:42;;;;;;;5.80;4.80;;;8.50;95.00;;;;;;5033306;28;20206;-61
2022/04/05 01:02:12;;;;;;;7.37;5.40;;;8.50;95.70;;;;;;5033398;28;20757;-61
2022/04/05 01:04:41;;;;;;;5.47;4.60;;;8.50;95.60;;;;;;5034027;28;20679;-61
2022/04/05 01:07:13;;;;;;;6.27;5.10;;;8.50;96.20;;;;;;5033554;28;20245;-61
2022/04/05 01:09:40;;;;;;;6.13;5.13;;;8.50;96.30;;;;;;5033077;28;20261;-62
2022/04/05 01:12:08;;;;;;;5.47;4.73;;;8.50;96.20;;;;;;5033233;28;20210;-61
2022/04/05 01:14:36;;;;;;;5.00;4.50;;;8.50;96.40;;;;;;5033213;28;20227;-62
2022/04/05 01:17:04;;;;;;;5.30;4.50;;;8.40;96.80;;;;;;5033022;28;20508;-61
2022/04/05 01:19:31;;;;;;;7.70;4.87;;;8.40;96.70;;;;;;5033038;28;20207;-61
2022/04/05 01:21:58;;;;;;;7.37;4.70;;;8.50;96.80;;;;;;5032941;28;20284;-61
2022/04/05 01:24:27;;;;;;;7.17;4.83;;;8.60;96.90;;;;;;5033247;28;20237;-61
2022/04/05 01:26:56;;;;;;;6.10;5.20;;;8.50;97.20;;;;;;5033143;28;20257;-61
2022/04/05 01:29:24;;;;;;;5.53;4.87;;;8.60;97.10;;;;;;5033277;28;20206;-61
2022/04/05 01:31:53;;;;;;;6.37;4.57;;;8.50;97.30;;;;;;5033025;28;20293;-61
2022/04/05 01:34:23;;;;;;;7.40;5.27;;;8.50;97.70;;;;;;5033109;28;20281;-61
2022/04/05 01:36:51;;;;;;;6.33;5.27;;;8.50;98.20;;;;;;5032414;28;20218;-62
2022/04/05 01:39:19;;;;;;;7.20;5.30;;;8.50;98.30;;;;;;5033009;28;20209;-61
2022/04/05 01:41:52;;;;;;;6.40;5.00;;;8.50;98.40;;;;;;5032719;28;20214;-61
2022/04/05 01:44:20;;;;;;;6.33;5.23;;;8.40;98.50;;;;;;5032651;28;20249;-62
2022/04/05 01:46:46;;;;;;;7.33;5.07;;;8.50;98.90;;;;;;5032859;28;20284;-62
2022/04/05 01:49:14;;;;;;;5.83;4.97;;;8.40;99.10;;;;;;5032938;28;20210;-61
2022/04/05 01:51:42;;;;;;;6.27;5.10;;;8.30;99.30;;;;;;5032577;28;20634;-62
2022/04/05 01:54:11;;;;;;;7.13;5.20;;;8.30;99.80;;;;;;5067515;22;20291;-66
2022/04/05 01:56:43;;;;;;;5.10;4.60;;;8.30;99.50;;;;;;5051893;28;20228;-65
2022/04/05 01:59:11;;;;;;;8.80;5.10;;;8.30;99.60;;;;;;5052221;28;20206;-66
2022/04/05 02:01:38;;;;;;;6.67;5.00;;;8.40;99.50;;;;;;5051770;28;20217;-65
2022/04/05 02:04:05;;;;;;;7.00;4.73;;;8.30;99.70;;;;;;5052001;28;20233;-64
2022/04/05 02:06:32;;;;;;;6.70;5.23;;;8.20;99.90;;;;;;5051909;28;20198;-65
2022/04/05 02:08:58;;;;;;;6.07;4.77;;;8.20;99.90;;;;;;5052142;28;20205;-64
2022/04/05 02:11:25;;;;;;;6.97;4.93;;;8.20;99.90;;;;;;5051650;28;20267;-65
2022/04/05 02:13:52;;;;;;;7.63;5.17;;;8.20;99.90;;;;;;5052077;28;20221;-66
2022/04/05 02:16:20;;;;;;;5.73;5.03;;;8.20;99.90;;;;;;5052075;28;20227;-65
2022/04/05 02:18:47;;;;;;;7.03;5.10;;;8.20;99.90;;;;;;5051948;28;20206;-64
2022/04/05 02:21:15;;;;;;;7.50;5.77;;;8.20;99.90;;;;;;5051945;28;20201;-66
2022/04/05 02:23:41;;;;;;;6.27;5.20;;;8.20;99.90;;;;;;5051772;28;20236;-63
2022/04/05 02:26:08;;;;;;;5.80;5.17;;;8.10;99.90;;;;;;5051519;28;20210;-65
2022/04/05 02:28:35;;;;;;;5.23;4.73;;;8.10;99.90;;;;;;5051454;28;20403;-64
2022/04/05 02:31:02;;;;;;;5.87;5.23;;;8.10;99.90;;;;;;5051152;28;20622;-65
2022/04/05 02:33:30;;;;;;;7.27;5.50;;;8.10;99.90;;;;;;5051624;28;20649;-65
2022/04/05 02:35:57;;;;;;;7.10;5.23;;;8.10;99.90;;;;;;5051165;28;20609;-65
2022/04/05 02:38:23;;;;;;;7.63;5.57;;;8.00;99.90;;;;;;5051546;28;20300;-65
2022/04/05 02:40:50;;;;;;;7.97;5.87;;;8.10;99.90;;;;;;5051162;28;20239;-65
2022/04/05 02:43:17;;;;;;;6.17;5.20;;;8.20;99.90;;;;;;5051999;28;20229;-64
2022/04/05 02:45:44;;;;;;;6.97;5.40;;;8.20;99.90;;;;;;5054930;28;20282;-65
2022/04/05 02:48:10;;;;;;;7.00;5.13;;;8.10;99.90;;;;;;5055205;28;20206;-65
2022/04/05 02:50:38;;;;;;;7.47;5.67;;;8.00;99.90;;;;;;5054924;28;20213;-65
2022/04/05 02:53:05;;;;;;;7.23;5.60;;;8.00;99.90;;;;;;5054857;28;20248;-65
2022/04/05 02:55:32;;;;;;;7.17;5.70;;;8.10;99.90;;;;;;5054963;28;20205;-65
2022/04/05 02:57:58;;;;;;;6.87;5.67;;;8.00;99.90;;;;;;5054669;28;20225;-63
2022/04/05 03:00:27;;;;;;;7.00;5.10;;;8.00;99.90;;;;;;5054719;28;20501;-64
2022/04/05 03:02:54;;;;;;;6.83;5.70;;;7.90;99.90;;;;;;5054814;28;20210;-63
2022/04/05 03:05:22;;;;;;;8.03;5.67;;;7.90;99.90;;;;;;5054734;28;20589;-63
2022/04/05 03:07:50;;;;;;;8.33;6.43;;;7.90;99.90;;;;;;5054620;28;20216;-65
2022/04/05 03:10:16;;;;;;;7.90;5.80;;;7.90;99.90;;;;;;5054274;28;20251;-65
2022/04/05 03:12:43;;;;;;;6.60;5.73;;;7.80;99.90;;;;;;5054303;28;20235;-65
2022/04/05 03:15:11;;;;;;;6.10;5.43;;;7.80;99.90;;;;;;5054641;28;20213;-63
2022/04/05 03:17:42;;;;;;;8.70;5.47;;;7.70;99.90;;;;;;5054517;28;20225;-64
2022/04/05 03:20:12;;;;;;;9.07;7.30;;;7.70;99.90;;;;;;5054333;28;20209;-65
2022/04/05 03:22:39;;;;;;;7.03;5.83;;;7.70;99.90;;;;;;5054433;28;20205;-63
2022/04/05 03:25:08;;;;;;;8.07;5.83;;;7.70;99.90;;;;;;5054054;28;20597;-63
2022/04/05 03:27:37;;;;;;;7.93;5.97;;;7.70;99.90;;;;;;5054410;28;20228;-64
2022/04/05 03:30:05;;;;;;;6.57;5.40;;;7.70;99.90;;;;;;5054265;28;20206;-64
2022/04/05 03:32:32;;;;;;;6.47;5.23;;;7.70;99.90;;;;;;5054385;28;20627;-63
2022/04/05 03:34:59;;;;;;;6.40;5.33;;;7.80;99.90;;;;;;5054150;28;20305;-65
2022/04/05 03:37:26;;;;;;;6.73;5.33;;;7.80;99.90;;;;;;5053985;28;20610;-65
2022/04/05 03:39:53;;;;;;;7.57;5.57;;;7.80;99.90;;;;;;5053551;28;20209;-64
2022/04/05 03:42:21;;;;;;;7.53;5.90;;;7.80;99.90;;;;;;5054208;28;20251;-65
2022/04/05 03:44:48;;;;;;;8.67;5.87;;;7.90;99.90;;;;;;5053782;28;20226;-65
2022/04/05 03:47:15;;;;;;;11.63;5.63;;;7.90;99.90;;;;;;5053934;28;20247;-64
2022/04/05 03:49:42;;;;;;;8.37;6.33;;;7.90;99.90;;;;;;5053920;28;20213;-63
2022/04/05 03:52:09;;;;;;;7.13;6.33;;;7.90;99.90;;;;;;5053487;28;20213;-62
2022/04/05 03:54:36;;;;;;;9.00;6.77;;;7.90;99.90;;;;;;5053183;28;20237;-63
2022/04/05 03:57:03;;;;;;;6.63;5.73;;;7.90;99.90;;;;;;5053698;28;20225;-63
2022/04/05 03:59:31;;;;;;;6.87;5.77;;;7.90;99.90;;;;;;5053972;28;20205;-63
2022/04/05 04:01:57;;;;;;;8.23;6.10;;;7.90;99.90;;;;;;5053500;28;20263;-63
2022/04/05 04:04:24;;;;;;;7.47;6.10;;;7.90;99.90;;;;;;5053591;28;20650;-65
2022/04/05 04:06:51;;;;;;;8.17;6.07;;;7.90;99.90;;;;;;5053445;28;20205;-65
2022/04/05 04:09:17;;;;;;;9.27;7.13;;;7.90;99.90;;;;;;5053526;28;20212;-64
2022/04/05 04:11:45;;;;;;;8.83;6.33;;;7.80;99.90;;;;;;5053416;28;20206;-63
2022/04/05 04:14:12;;;;;;;9.43;5.90;;;7.70;99.90;;;;;;5053214;28;20713;-63
2022/04/05 04:16:40;;;;;;;10.33;6.20;;;7.70;99.90;;;;;;5053008;28;20735;-64
2022/04/05 04:19:07;;;;;;;8.07;5.33;;;7.60;99.90;;;;;;5053354;28;20586;-64
2022/04/05 04:21:34;;;;;;;9.93;6.73;;;7.50;99.90;;;;;;5053337;28;20208;-64
2022/04/05 04:24:00;;;;;;;7.50;5.70;;;7.40;99.90;;;;;;5053024;28;20717;-64
2022/04/05 04:26:27;;;;;;;7.67;6.63;;;7.40;99.90;;;;;;5053194;28;20263;-64
2022/04/05 04:28:58;;;;;;;7.00;5.83;;;7.50;99.90;;;;;;5053046;28;20733;-64
2022/04/05 04:31:25;;;;;;;8.67;5.90;;;7.50;99.90;;;;;;5053006;28;20240;-64
2022/04/05 04:33:53;;;;;;;7.50;5.57;;;7.50;99.90;;;;;;5052966;28;20255;-63
2022/04/05 04:36:21;;;;;;;8.37;6.07;;;7.50;99.90;;;;;;5053120;28;20210;-63
2022/04/05 04:38:48;;;;;;;7.70;5.87;;;7.50;99.90;;;;;;5052953;28;20231;-63
2022/04/05 04:41:15;;;;;;;6.83;5.30;;;7.60;99.90;;;;;;5052862;28;20206;-65
2022/04/05 04:43:42;;;;;;;6.90;5.67;;;7.50;99.90;;;;;;5052875;28;20247;-64
2022/04/05 04:46:08;;;;;;;12.40;8.53;;;7.40;99.90;;;;;;5052683;28;20255;-63
2022/04/05 04:48:35;;;;;;;9.43;6.13;;;7.50;99.90;;;;;;5052657;28;20210;-64
2022/04/05 04:51:03;;;;;;;6.67;5.50;;;7.50;99.90;;;;;;5052864;28;20481;-64
2022/04/05 04:53:30;;;;;;;7.93;5.73;;;7.50;99.90;;;;;;5053316;28;20268;-64
2022/04/05 04:55:57;;;;;;;8.50;5.60;;;7.50;99.90;;;;;;5053189;28;20209;-63
2022/04/05 04:58:24;;;;;;;8.63;6.30;;;7.60;99.90;;;;;;5052722;28;20229;-65
2022/04/05 05:00:50;;;;;;;6.90;5.47;;;7.70;99.90;;;;;;5052476;28;20605;-65
2022/04/05 05:03:18;;;;;;;7.80;5.43;;;7.70;99.90;;;;;;5052680;28;20233;-65
2022/04/05 05:05:45;;;;;;;7.67;5.70;;;7.80;99.90;;;;;;5052815;28;20214;-63
2022/04/05 05:08:13;;;;;;;9.13;5.33;;;7.80;99.90;;;;;;5051819;28;20271;-63
2022/04/05 05:10:40;;;;;;;6.17;5.23;;;7.80;99.90;;;;;;5052497;28;20205;-63
2022/04/05 05:13:06;;;;;;;7.57;5.10;;;7.80;99.90;;;;;;5052312;28;20229;-65
2022/04/05 05:15:33;;;;;;;8.03;5.60;;;7.70;99.90;;;;;;5052347;28;20620;-64
2022/04/05 05:18:00;;;;;;;9.33;5.40;;;7.70;99.90;;;;;;5052232;28;20232;-65
2022/04/05 05:20:26;;;;;;;7.53;5.77;;;7.70;99.90;;;;;;5051970;28;20673;-62
2022/04/05 05:22:53;;;;;;;7.23;5.27;;;7.80;99.90;;;;;;5052072;28;20213;-63
2022/04/05 05:25:21;;;;;;;10.40;5.57;;;7.80;99.90;;;;;;5052070;28;20209;-64
2022/04/05 05:27:48;;;;;;;6.40;5.53;;;7.80;99.90;;;;;;5052551;28;20559;-64
2022/04/05 05:30:14;;;;;;;7.73;5.63;;;7.70;99.90;;;;;;5051748;28;20631;-64
2022/04/05 05:32:45;;;;;;;8.37;5.40;;;7.60;99.90;;;;;;5052017;28;20232;-64
2022/04/05 05:35:14;;;;;;;9.13;6.00;;;7.60;99.90;;;;;;5052138;28;20297;-64
2022/04/05 05:37:41;;;;;;;7.23;5.53;;;7.60;99.90;;;;;;5051928;28;20225;-64
2022/04/05 05:40:09;;;;;;;5.43;4.87;;;7.60;99.90;;;;;;5051678;28;20619;-64
2022/04/05 05:42:47;;;;;;;7.53;5.30;;;7.60;99.90;;;;;;5052014;28;20209;-64
2022/04/05 05:45:14;;;;;;;11.53;6.70;;;7.70;99.90;;;;;;5052257;28;20267;-63
2022/04/05 05:47:41;;;;;;;8.37;5.60;;;7.80;99.90;;;;;;5052126;28;20201;-64
2022/04/05 05:50:10;;;;;;;8.90;5.43;;;7.80;99.90;;;;;;5051701;28;20288;-64
2022/04/05 05:52:37;;;;;;;8.23;5.83;;;7.70;99.90;;;;;;5051831;28;20205;-63
2022/04/05 05:55:04;;;;;;;11.60;5.73;;;7.80;99.90;;;;;;5051634;28;20256;-63
2022/04/05 05:57:31;;;;;;;10.17;5.80;;;7.80;99.90;;;;;;5051618;28;20316;-63
2022/04/05 06:00:00;;;;;;;10.93;5.93;;;7.80;99.90;;;;;;5051563;28;20212;-63
2022/04/05 06:02:26;;;;;;;18.03;6.77;;;7.70;99.90;;;;;;5052202;28;20209;-66
2022/04/05 06:04:53;;;;;;;13.47;6.33;;;7.70;99.90;;;;;;5051815;28;20578;-64
2022/04/05 06:07:20;;;;;;;7.30;5.10;;;7.70;99.90;;;;;;5051993;28;20729;-63
2022/04/05 06:09:47;;;;;;;8.07;5.97;;;7.80;99.90;;;;;;5051794;28;20201;-63
2022/04/05 06:12:13;;;;;;;7.03;5.67;;;7.80;99.90;;;;;;5051843;28;20201;-59
2022/04/05 06:14:40;;;;;;;10.93;6.27;;;7.70;99.90;;;;;;5051893;28;20225;-61
2022/04/05 06:17:08;;;;;;;8.97;5.90;;;7.70;99.90;;;;;;5051972;28;20210;-59
2022/04/05 06:19:35;;;;;;;6.47;5.47;;;7.80;99.90;;;;;;5054651;28;20205;-59
2022/04/05 06:22:02;;;;;;;7.27;5.30;;;7.90;99.90;;;;;;5056052;28;20201;-60
2022/04/05 06:24:29;;;;;;;11.33;5.97;;;7.80;99.90;;;;;;5055877;28;20283;-62
2022/04/05 06:26:55;;;;;;;9.10;6.13;;;7.90;99.90;;;;;;5055590;28;20263;-62
2022/04/05 06:29:22;;;;;;;7.57;5.30;;;8.00;99.90;;;;;;5055496;28;20674;-61
2022/04/05 06:31:49;;;;;;;8.83;5.23;;;8.00;99.90;;;;;;5055479;28;20205;-61
2022/04/05 06:34:17;;;;;;;5.70;5.07;;;8.00;99.90;;;;;;5055286;28;20252;-60
2022/04/05 06:36:43;;;;;;;11.03;5.67;;;8.00;99.90;;;;;;5055330;28;20206;-62
2022/04/05 06:39:10;;;;;;;7.97;5.77;;;8.10;99.90;;;;;;5055384;28;20226;-62
2022/04/05 06:41:37;;;;;;;14.10;5.67;;;8.20;99.90;;;;;;5055245;28;20296;-62
2022/04/05 06:44:04;;;;;;;7.23;5.83;;;8.20;99.90;;;;;;5055152;28;20275;-62
2022/04/05 06:46:31;;;;;;;9.70;5.80;;;8.20;99.90;;;;;;5055449;28;20209;-61
2022/04/05 06:48:58;;;;;;;9.83;5.93;;;8.20;99.90;;;;;;5055648;28;20232;-61
2022/04/05 06:51:26;;;;;;;11.27;8.97;;;8.20;99.90;;;;;;5055208;28;20674;-60
2022/04/05 06:53:52;;;;;;;7.20;5.90;;;8.20;99.90;;;;;;5055412;28;20286;-61
2022/04/05 06:56:21;;;;;;;7.17;5.40;;;8.30;99.90;;;;;;5055615;28;20221;-61
2022/04/05 06:58:48;;;;;;;8.57;5.67;;;8.40;99.90;;;;;;5055348;28;20265;-61
2022/04/05 07:01:15;;;;;;;8.47;5.23;;;8.50;99.90;;;;;;5055426;28;20209;-61
2022/04/05 07:03:41;;;;;;;7.13;5.70;;;8.50;99.90;;;;;;5054942;28;20238;-63
2022/04/05 07:06:08;;;;;;;9.17;5.17;;;8.60;99.90;;;;;;5054638;28;20210;-61
2022/04/05 07:08:37;;;;;;;9.13;4.90;;;8.70;99.90;;;;;;5055021;28;20723;-60
2022/04/05 07:11:04;;;;;;;8.47;5.37;;;8.70;99.90;;;;;;5054359;28;20658;-60
2022/04/05 07:13:31;;;;;;;6.77;4.80;;;8.60;99.90;;;;;;5054603;28;20339;-60
2022/04/05 07:15:58;;;;;;;7.73;5.30;;;8.60;99.90;;;;;;5054425;28;20312;-60
2022/04/05 07:18:24;;;;;;;9.13;5.37;;;8.60;99.90;;;;;;5054322;28;20236;-61
2022/04/05 07:20:52;;;;;;;9.30;5.37;;;8.60;99.90;;;;;;5054131;28;20267;-61
2022/04/05 07:23:19;;;;;;;6.67;4.90;;;8.60;99.90;;;;;;5054421;28;20279;-61
2022/04/05 07:25:47;;;;;;;8.93;5.40;;;8.60;99.90;;;;;;5054377;28;20212;-62
2022/04/05 07:28:13;;;;;;;7.47;5.13;;;8.70;99.90;;;;;;5054710;28;20210;-62
2022/04/05 07:30:40;;;;;;;7.63;5.30;;;8.80;99.90;;;;;;5053067;28;20210;-62
2022/04/05 07:33:08;;;;;;;6.73;5.10;;;8.90;99.90;;;;;;5053991;28;20229;-62
2022/04/05 07:35:35;;;;;;;6.70;5.17;;;9.00;99.90;;;;;;5054331;28;20217;-62
2022/04/05 07:38:01;;;;;;;7.47;5.07;;;9.00;99.90;;;;;;5054246;28;20226;-60
2022/04/05 07:40:47;;;;;;;6.50;5.03;;;9.10;99.90;;;;;;5054010;28;20210;-61
2022/04/05 07:43:16;;;;;;;6.43;4.83;;;9.20;99.90;;;;;;5054261;28;20228;-61
2022/04/05 07:45:44;;;;;;;8.10;4.97;;;9.20;99.90;;;;;;5053902;28;20212;-61
2022/04/05 07:48:11;;;;;;;6.47;5.13;;;9.20;99.90;;;;;;5053886;28;20205;-61
2022/04/05 07:50:37;;;;;;;7.23;5.10;;;9.30;99.90;;;;;;5053727;28;20774;-61
2022/04/05 07:55:32;;;;;;;8.23;4.70;;;9.50;99.90;;;;;;5021361;28;20218;-57
2022/04/05 07:57:59;;;;;;;6.87;5.13;;;9.60;99.90;;;;;;5034001;28;20313;-58
2022/04/05 08:00:28;;;;;;;5.53;4.90;;;9.70;99.90;;;;;;5033995;28;20206;-58
2022/04/05 08:02:55;;;;;;;6.70;4.47;;;9.80;99.90;;;;;;5034012;28;20276;-58
2022/04/05 08:05:23;;;;;;;7.63;4.97;;;9.70;99.90;;;;;;5033813;28;20234;-58
2022/04/05 08:07:51;;;;;;;6.40;4.73;;;9.70;99.90;;;;;;5033898;28;20203;-57
2022/04/05 08:10:18;;;;;;;7.57;4.37;;;9.80;99.90;;;;;;5033725;28;20256;-57
2022/04/05 08:12:47;;;;;;;8.90;4.70;;;9.90;99.90;;;;;;5033702;28;20207;-58
2022/04/05 08:15:15;;;;;;;6.47;4.30;;;9.90;99.90;;;;;;5033965;28;20226;-57
2022/04/05 08:17:44;;;;;;;7.57;4.90;;;10.00;99.90;;;;;;5033693;28;20238;-58
2022/04/05 08:20:11;;;;;;;6.77;5.67;;;10.10;99.90;;;;;;5033735;28;20237;-63
2022/04/05 08:22:38;;;;;;;5.67;4.53;;;10.00;99.90;;;;;;5024579;28;20298;-59
2022/04/05 08:25:06;;;;;;;6.80;4.77;;;10.00;99.90;;;;;;5013571;28;20273;-63
2022/04/05 08:27:33;;;;;;;9.70;4.80;;;10.10;99.90;;;;;;5014222;28;20736;-63
2022/04/05 08:30:00;;;;;;;7.30;4.83;;;10.30;99.90;;;;;;5013619;28;20317;-62
2022/04/05 08:32:27;;;;;;;5.63;4.53;;;10.50;99.90;;;;;;5018255;28;20635;-61
2022/04/05 08:34:55;;;;;;;5.83;4.53;;;10.70;99.90;;;;;;5018266;28;20726;-62
2022/04/05 08:37:23;;;;;;;7.33;4.53;;;10.70;99.90;;;;;;5007173;28;20583;-64
2022/04/05 08:39:50;;;;;;;6.77;4.40;;;10.60;99.90;;;;;;5013177;28;20313;-57
2022/04/05 08:42:16;;;;;;;9.23;4.63;;;10.70;99.90;;;;;;5012482;28;20248;-58
2022/04/05 08:44:44;;;;;;;8.73;4.77;;;10.80;99.90;;;;;;5025689;28;20722;-57
2022/04/05 08:47:12;;;;;;;8.77;4.80;;;10.80;99.90;;;;;;5032565;28;20297;-57
2022/04/05 08:49:39;;;;;;;5.57;4.47;;;10.70;99.90;;;;;;5032830;28;20234;-57
2022/04/05 08:52:09;;;;;;;7.80;5.00;;;10.90;99.90;;;;;;5032401;28;20229;-58
2022/04/05 08:54:35;;;;;;;5.73;4.53;;;11.10;99.90;;;;;;5032089;28;20730;-58
2022/04/05 08:57:02;;;;;;;7.20;4.60;;;11.30;99.90;;;;;;5032689;28;20214;-57
2022/04/05 08:59:30;;;;;;;9.73;4.63;;;11.20;99.90;;;;;;5032708;28;20229;-58
2022/04/05 09:01:57;;;;;;;7.30;5.37;;;11.20;99.90;;;;;;5032425;28;20218;-57
2022/04/05 09:04:24;;;;;;;6.07;4.10;;;11.40;99.90;;;;;;5032307;28;20226;-57
2022/04/05 09:06:51;;;;;;;14.10;9.10;;;11.50;99.90;;;;;;5032097;28;20202;-58
2022/04/05 09:09:21;;;;;;;10.17;7.10;;;11.50;99.90;;;;;;5032534;28;20218;-58
2022/04/05 09:11:49;;;;;;;10.07;6.40;;;11.50;99.90;;;;;;5032244;28;20298;-58
2022/04/05 09:14:23;;;;;;;8.30;5.80;;;11.70;99.90;;;;;;5032505;28;20257;-57
2022/04/05 09:17:05;;;;;;;7.80;6.43;;;11.90;99.90;;;;;;5032148;28;20696;-58
2022/04/05 09:19:38;;;;;;;7.03;4.47;;;12.00;99.90;;;;;;5032353;28;20321;-62
2022/04/05 09:22:05;;;;;;;6.37;4.40;;;12.10;99.90;;;;;;5032554;28;20272;-60
2022/04/05 09:24:35;;;;;;;6.40;4.63;;;12.10;99.90;;;;;;5032742;28;20226;-61
2022/04/05 09:27:02;;;;;;;8.87;4.10;;;12.10;99.90;;;;;;5032866;28;20210;-60
2022/04/05 09:29:38;;;;;;;4.37;3.97;;;12.10;99.90;;;;;;5032449;28;20214;-61
2022/04/05 09:32:05;;;;;;;5.20;3.80;;;12.20;99.90;;;;;;5031776;28;20186;-58
2022/04/05 09:34:32;;;;;;;4.60;3.97;;;12.10;99.90;;;;;;5032110;28;20230;-58
2022/04/05 09:37:08;;;;;;;5.90;4.70;;;12.10;99.90;;;;;;5032294;28;20218;-60
2022/04/05 09:39:36;;;;;;;7.13;4.50;;;12.20;99.90;;;;;;5032202;28;20257;-58
2022/04/05 09:42:07;;;;;;;8.23;4.80;;;12.20;99.90;;;;;;5032230;28;20209;-58
2022/04/05 09:44:37;;;;;;;8.17;5.10;;;12.30;99.90;;;;;;5031795;28;20611;-58
2022/04/05 09:47:06;;;;;;;7.20;4.67;;;12.30;99.90;;;;;;5032055;28;20760;-58
2022/04/05 09:49:34;;;;;;;7.83;5.80;;;12.30;99.90;;;;;;5032021;28;20206;-58
2022/04/05 09:52:01;;;;;;;5.27;4.30;;;12.30;99.90;;;;;;5031781;28;20649;-58
2022/04/05 09:54:30;;;;;;;11.27;6.73;;;12.40;99.90;;;;;;5037438;28;20356;-59
2022/04/05 09:57:03;;;;;;;8.40;5.50;;;12.40;99.90;;;;;;5020769;28;20261;-58
2022/04/05 09:59:40;;;;;;;12.27;6.83;;;12.50;99.90;;;;;;5038733;28;20226;-59
2022/04/05 10:02:12;;;;;;;7.37;4.30;;;12.50;99.90;;;;;;5038427;28;20241;-59
2022/04/05 10:05:01;;;;;;;9.23;4.13;;;12.60;99.90;;;;;;5038249;28;20609;-59
2022/04/05 10:07:29;;;;;;;4.83;4.00;;;12.60;99.90;;;;;;5038123;28;20300;-62
2022/04/05 10:09:56;;;;;;;7.50;4.50;;;12.70;99.90;;;;;;5038416;28;20279;-58
2022/04/05 10:12:25;;;;;;;5.43;3.90;;;12.90;99.90;;;;;;5038159;28;20607;-59
2022/04/05 10:14:51;;;;;;;7.53;4.30;;;12.90;99.90;;;;;;5038240;28;20249;-59
2022/04/05 10:17:20;;;;;;;7.73;4.60;;;12.90;99.90;;;;;;5038351;28;20210;-57
2022/04/05 10:19:50;;;;;;;5.77;4.23;;;13.10;99.90;;;;;;5037732;28;20308;-56
2022/04/05 10:22:18;;;;;;;6.43;4.20;;;13.20;99.90;;;;;;5038081;28;20215;-56
2022/04/05 10:24:46;;;;;;;5.53;4.03;;;13.20;99.90;;;;;;5038077;28;20253;-59
2022/04/05 10:27:13;;;;;;;5.40;4.00;;;13.10;99.90;;;;;;5039228;28;20271;-60
2022/04/05 10:29:42;;;;;;;4.93;3.80;;;13.10;99.90;;;;;;5038985;28;20202;-63
2022/04/05 10:32:15;;;;;;;3.83;3.40;;;13.20;99.90;;;;;;5037780;28;20206;-63
2022/04/05 10:34:46;;;;;;;8.83;4.37;;;13.20;99.90;;;;;;5037927;28;20226;-57
2022/04/05 10:37:16;;;;;;;7.63;4.87;;;13.30;99.90;;;;;;5038334;28;20209;-58
2022/04/05 10:39:44;;;;;;;5.33;4.07;;;13.40;99.90;;;;;;5038072;28;20647;-58
2022/04/05 10:42:20;;;;;;;5.03;3.80;;;13.30;99.90;;;;;;5037911;28;20233;-58
2022/04/05 10:45:11;;;;;;;8.37;5.57;;;13.20;99.90;;;;;;5035219;28;20656;-58
2022/04/05 10:47:57;;;;;;;6.40;3.80;;;13.10;99.90;;;;;;5018254;28;20211;-58
2022/04/05 10:50:24;;;;;;;6.07;4.40;;;13.10;99.90;;;;;;5018089;28;20281;-59
2022/04/05 10:53:13;;;;;;;5.47;4.00;;;13.10;99.90;;;;;;5017618;28;20272;-58
2022/04/05 10:56:15;;;;;;;7.93;4.07;;;13.00;99.90;;;;;;5018294;28;20215;-61
2022/04/05 10:59:16;;;;;;;7.37;4.10;;;12.90;99.90;;;;;;5017876;28;20241;-59
2022/04/05 11:01:45;;;;;;;7.27;4.47;;;12.90;99.90;;;;;;5018214;28;20297;-58
2022/04/05 11:04:33;;;;;;;5.60;4.07;;;12.90;99.90;;;;;;5017311;28;20769;-58
2022/04/05 11:07:14;;;;;;;8.00;4.27;;;13.00;99.90;;;;;;5015213;28;20207;-58
2022/04/05 11:09:53;;;;;;;8.70;4.00;;;12.90;99.90;;;;;;5014438;28;20242;-58
2022/04/05 11:12:24;;;;;;;9.90;4.40;;;12.90;99.90;;;;;;5014662;28;20670;-58
2022/04/05 11:14:56;;;;;;;6.27;4.00;;;13.00;99.90;;;;;;5014565;28;20706;-59
2022/04/05 11:17:25;;;;;;;6.33;4.00;;;13.10;99.90;;;;;;5014840;28;20203;-58
2022/04/05 11:19:55;;;;;;;6.37;4.00;;;13.10;99.90;;;;;;5014605;28;20222;-58
2022/04/05 11:22:30;;;;;;;11.13;4.33;;;13.10;99.90;;;;;;5014172;28;20211;-58
2022/04/05 11:25:00;;;;;;;4.13;3.50;;;13.30;99.90;;;;;;5014544;28;20226;-58
2022/04/05 11:27:28;;;;;;;6.93;4.03;;;13.30;99.90;;;;;;5015278;28;20310;-58
2022/04/05 11:30:37;;;;;;;5.03;3.77;;;13.20;99.90;;;;;;5015100;28;20199;-57
2022/04/05 11:33:20;;;;;;;6.07;4.17;;;13.00;99.90;;;;;;5014326;28;20213;-57
2022/04/05 11:35:48;;;;;;;7.53;4.40;;;13.10;99.90;;;;;;5014704;28;20210;-57
2022/04/05 11:38:27;;;;;;;6.17;4.50;;;13.10;99.90;;;;;;5014633;28;20273;-58
2022/04/05 11:40:57;;;;;;;7.97;4.43;;;13.10;99.90;;;;;;5014055;28;20230;-58
2022/04/05 11:43:27;;;;;;;5.13;4.23;;;13.20;99.90;;;;;;5014194;28;20584;-58
2022/04/05 11:45:56;;;;;;;5.83;3.83;;;13.10;99.90;;;;;;5024289;28;20206;-58
2022/04/05 11:48:26;;;;;;;5.37;4.00;;;13.20;99.90;;;;;;5034299;28;20211;-62
2022/04/05 11:50:54;;;;;;;5.70;4.10;;;13.30;99.90;;;;;;5034357;28;20297;-56
2022/04/05 11:53:22;;;;;;;5.77;4.10;;;13.50;99.90;;;;;;5033686;28;20210;-57
2022/04/05 11:56:04;;;;;;;5.87;4.20;;;13.80;99.90;;;;;;5034005;28;20218;-58
2022/04/05 11:58:34;;;;;;;8.27;4.97;;;13.90;99.90;;;;;;5033392;28;20206;-57
2022/04/05 12:01:02;;;;;;;6.93;3.77;;;14.00;99.90;;;;;;5033277;28;20724;-56
2022/04/05 12:03:30;;;;;;;6.63;3.97;;;14.10;99.90;;;;;;5033585;28;20226;-56
2022/04/05 12:05:57;;;;;;;7.13;4.40;;;14.10;99.90;;;;;;5033243;28;20210;-58
2022/04/05 12:08:24;;;;;;;5.60;3.87;;;14.20;99.90;;;;;;5033767;28;20210;-57
2022/04/05 12:10:51;;;;;;;5.10;3.73;;;14.30;99.90;;;;;;5033075;28;20256;-56
2022/04/05 12:13:28;;;;;;;5.13;3.67;;;14.30;99.90;;;;;;5033376;28;20256;-56
2022/04/05 12:15:59;;;;;;;5.47;3.63;;;14.30;99.90;;;;;;5032639;28;20297;-56
2022/04/05 12:18:27;;;;;;;7.67;3.60;;;14.30;99.90;;;;;;5033068;28;20633;-55
2022/04/05 12:20:57;;;;;;;5.77;3.63;;;14.30;99.90;;;;;;5033284;28;20312;-55
2022/04/05 12:23:24;;;;;;;8.23;3.93;;;14.30;99.90;;;;;;5032637;28;20736;-55
2022/04/05 12:26:11;;;;;;;4.57;3.27;;;14.40;99.90;;;;;;5033109;28;20685;-56
2022/04/05 12:28:40;;;;;;;4.13;3.57;;;14.50;99.90;;;;;;5033133;28;20209;-55
2022/04/05 12:31:15;;;;;;;5.60;3.40;;;14.50;99.90;;;;;;5032796;28;20642;-55
2022/04/05 12:33:52;;;;;;;5.20;3.33;;;14.60;99.90;;;;;;5032699;28;20230;-55
2022/04/05 12:36:21;;;;;;;3.80;3.10;;;14.40;99.90;;;;;;5032861;28;20689;-55
2022/04/05 12:38:48;;;;;;;6.27;3.40;;;14.40;99.90;;;;;;5033241;28;20308;-55
2022/04/05 12:41:15;;;;;;;7.07;3.87;;;14.40;99.90;;;;;;5032521;28;20295;-55
2022/04/05 12:43:43;;;;;;;5.70;3.50;;;14.40;99.90;;;;;;5032713;28;20233;-55
2022/04/05 12:46:11;;;;;;;6.13;3.63;;;14.40;99.90;;;;;;5020307;28;20772;-55
2022/04/05 12:48:39;;;;;;;3.40;2.80;;;14.40;99.90;;;;;;5012894;28;20618;-55
2022/04/05 12:51:06;;;;;;;5.23;3.10;;;14.40;99.90;;;;;;5012857;28;20584;-56
2022/04/05 12:53:37;;;;;;;4.07;3.30;;;14.50;99.90;;;;;;5013145;28;20325;-56
2022/04/05 12:56:08;;;;;;;5.50;3.60;;;14.50;99.90;;;;;;5012670;28;20298;-55
2022/04/05 12:58:46;;;;;;;6.63;3.07;;;14.40;99.90;;;;;;5012673;28;20637;-55
2022/04/05 13:01:21;;;;;;;5.13;3.10;;;14.20;99.90;;;;;;5012430;28;20254;-55
2022/04/05 13:03:48;;;;;;;4.57;3.50;;;14.20;99.90;;;;;;5012782;28;20231;-55